Ocean Majesty — CQSC — position and weather

sailwx.info

Track history (hours):
 
Tides and Currents Weather Stations Pressure Air Temp Water Temp Dewpoint Dewpoint Depression Visibility Wind Speed Wind Dir Waves Ship Positions

Ocean Majesty

Last reported at 2015-Jul-31 09:33 UTC. Time now 2015-Jul-31 21:27 UTC.
Position N 63°29' W 051°46'.

Length 136 m; draft 6.3 m.

Type: Passenger vessel. MMSI: 255717000.

Date/timePositionNaut miles runAvg speedWind from/ knotsBaromVisibWave heightAir tempDewpointWater temp
2015-Jul-31 09:33N 63°29' W 051°46'1615.6
2015-Jul-31 08:33N 63°43' W 052°01'1615.7
2015-Jul-31 07:34N 63°57' W 052°17'1515.3
2015-Jul-31 06:33N 64°12' W 052°29'1515.3
2015-Jul-31 05:33N 64°26' W 052°40'1615.6
2015-Jul-31 04:34N 64°41' W 052°50'1616.2
2015-Jul-31 03:34N 64°56' W 053°02'1616.3
2015-Jul-31 02:34N 65°12' W 053°15'1816.5
2015-Jul-31 01:29N 65°29' W 053°27'  
2015-Jul-28 06:34N 65°31' W 053°28'1515.0
2015-Jul-28 05:33N 65°17' W 053°17'1514.5
2015-Jul-28 04:33N 65°04' W 053°05'1514.6
2015-Jul-28 03:33N 64°50' W 052°54'1515.0
2015-Jul-28 02:33N 64°36' W 052°43'1515.1
2015-Jul-28 01:33N 64°21' W 052°31'1514.9
2015-Jul-28 00:33N 64°07' W 052°20'1212.2
2015-Jul-27 23:33N 64°08' W 051°52'5 4.5
2015-Jul-27 22:33N 64°10' W 051°43'0 0.0
2015-Jul-27 21:32N 64°10' W 051°43'0 0.0
2015-Jul-27 20:32N 64°10' W 051°43'0 0.0
2015-Jul-27 19:32N 64°10' W 051°43'0 0.0
2015-Jul-27 18:32N 64°10' W 051°43'0 0.0
2015-Jul-27 17:32N 64°10' W 051°43'0 0.0
2015-Jul-27 16:32N 64°10' W 051°43'0 0.0
2015-Jul-27 15:32N 64°10' W 051°43'0 0.0
2015-Jul-27 14:32N 64°10' W 051°43'0 0.0
2015-Jul-27 13:32N 64°10' W 051°43'0 0.0
2015-Jul-27 12:32N 64°10' W 051°43'0 0.0
2015-Jul-27 11:32N 64°10' W 051°43'1 0.9
2015-Jul-27 10:33N 64°09' W 051°44'1110.6
2015-Jul-27 09:33N 64°04' W 052°05'1110.9
2015-Jul-27 08:33N 63°54' W 052°15'1515.1
2015-Jul-27 07:33N 63°41' W 051°59'  
Track history (hours):
 
Tides and Currents Weather Stations Pressure Air Temp Water Temp Dewpoint Dewpoint Depression Visibility Wind Speed Wind Dir Waves Ship Positions

Ocean Majesty

Last reported at 2015-Jul-31 09:33 UTC. Time now 2015-Jul-31 21:27 UTC.
Position N 63°29' W 051°46'.

Length 136 m; draft 6.3 m.

Type: Passenger vessel. MMSI: 255717000.

Date/timePositionNaut miles runAvg speedWind from/ knotsBaromVisibWave heightAir tempDewpointWater temp
2015-Jul-31 09:33N 63°29' W 051°46'1615.6
2015-Jul-31 08:33N 63°43' W 052°01'1615.7
2015-Jul-31 07:34N 63°57' W 052°17'1515.3
2015-Jul-31 06:33N 64°12' W 052°29'1515.3
2015-Jul-31 05:33N 64°26' W 052°40'1615.6
2015-Jul-31 04:34N 64°41' W 052°50'1616.2
2015-Jul-31 03:34N 64°56' W 053°02'1616.3
2015-Jul-31 02:34N 65°12' W 053°15'1816.5
2015-Jul-31 01:29N 65°29' W 053°27'  
2015-Jul-28 06:34N 65°31' W 053°28'1515.0
2015-Jul-28 05:33N 65°17' W 053°17'1514.5
2015-Jul-28 04:33N 65°04' W 053°05'1514.6
2015-Jul-28 03:33N 64°50' W 052°54'1515.0
2015-Jul-28 02:33N 64°36' W 052°43'1515.1
2015-Jul-28 01:33N 64°21' W 052°31'1514.9
2015-Jul-28 00:33N 64°07' W 052°20'1212.2
2015-Jul-27 23:33N 64°08' W 051°52'5 4.5
2015-Jul-27 22:33N 64°10' W 051°43'0 0.0
2015-Jul-27 21:32N 64°10' W 051°43'0 0.0
2015-Jul-27 20:32N 64°10' W 051°43'0 0.0
2015-Jul-27 19:32N 64°10' W 051°43'0 0.0
2015-Jul-27 18:32N 64°10' W 051°43'0 0.0
2015-Jul-27 17:32N 64°10' W 051°43'0 0.0
2015-Jul-27 16:32N 64°10' W 051°43'0 0.0
2015-Jul-27 15:32N 64°10' W 051°43'0 0.0
2015-Jul-27 14:32N 64°10' W 051°43'0 0.0
2015-Jul-27 13:32N 64°10' W 051°43'0 0.0
2015-Jul-27 12:32N 64°10' W 051°43'0 0.0
2015-Jul-27 11:32N 64°10' W 051°43'1 0.9
2015-Jul-27 10:33N 64°09' W 051°44'1110.6
2015-Jul-27 09:33N 64°04' W 052°05'1110.9
2015-Jul-27 08:33N 63°54' W 052°15'1515.1
2015-Jul-27 07:33N 63°41' W 051°59'  

Dump ship's entire track history